createdAt,value
2023-10-25T00:01:46.373Z,17.16
2023-10-25T00:04:13.474Z,17.39
2023-10-25T00:06:40.355Z,17.45
2023-10-25T00:09:07.309Z,17.28
2023-10-25T00:11:34.058Z,16.88
2023-10-25T00:14:00.909Z,17.00
2023-10-25T00:16:27.717Z,17.25
2023-10-25T00:18:54.617Z,17.41
2023-10-25T00:21:21.548Z,17.47
2023-10-25T00:23:48.366Z,17.45
2023-10-25T00:26:15.231Z,17.08
2023-10-25T00:28:42.046Z,16.89
2023-10-25T00:31:09.236Z,16.67
2023-10-25T00:33:36.284Z,16.67
2023-10-25T00:36:03.214Z,16.34
2023-10-25T00:38:29.997Z,16.18
2023-10-25T00:40:56.772Z,16.34
2023-10-25T00:43:24.534Z,16.16
2023-10-25T00:46:00.416Z,15.85
2023-10-25T00:48:28.595Z,15.88
2023-10-25T00:50:56.406Z,15.76
2023-10-25T00:53:25.741Z,15.74
2023-10-25T00:55:57.828Z,15.68
2023-10-25T00:58:24.824Z,15.74
2023-10-25T01:00:56.388Z,15.60
2023-10-25T01:03:23.748Z,15.47
2023-10-25T01:05:53.392Z,15.46
2023-10-25T01:08:21.435Z,15.44
2023-10-25T01:10:52.478Z,15.51
2023-10-25T01:13:20.072Z,15.62
2023-10-25T01:15:47.883Z,15.59
2023-10-25T01:18:16.369Z,15.48
2023-10-25T01:20:44.261Z,15.42
2023-10-25T01:23:11.510Z,15.28
2023-10-25T01:25:39.376Z,15.09
2023-10-25T01:28:06.826Z,15.00
2023-10-25T01:30:34.102Z,14.86
2023-10-25T01:33:01.091Z,14.84
2023-10-25T01:35:28.331Z,14.77
2023-10-25T01:37:55.731Z,14.70
2023-10-25T01:40:23.198Z,14.67
2023-10-25T01:42:52.686Z,14.66
2023-10-25T01:45:20.320Z,14.53
2023-10-25T01:47:47.135Z,14.33
2023-10-25T01:50:13.986Z,14.19
2023-10-25T01:52:40.932Z,14.04
2023-10-25T01:55:08.097Z,13.92
2023-10-25T01:57:35.166Z,13.93
2023-10-25T02:00:07.764Z,13.91
2023-10-25T02:02:35.229Z,13.97
2023-10-25T02:05:02.336Z,13.94
2023-10-25T02:07:29.305Z,13.92
2023-10-25T02:09:56.094Z,13.91
2023-10-25T02:12:23.024Z,13.85
2023-10-25T02:14:49.958Z,13.81
2023-10-25T02:17:16.867Z,13.87
2023-10-25T02:19:43.886Z,13.82
2023-10-25T02:22:13.449Z,13.85
2023-10-25T02:24:40.348Z,13.86
2023-10-25T02:27:07.157Z,13.78
2023-10-25T02:29:34.226Z,13.71
2023-10-25T02:32:01.277Z,13.68
2023-10-25T02:34:28.228Z,13.67
2023-10-25T02:36:55.003Z,13.68
2023-10-25T02:39:21.794Z,13.73
2023-10-25T02:41:48.937Z,13.78
2023-10-25T02:44:17.219Z,13.79
2023-10-25T02:46:44.173Z,13.76
2023-10-25T02:49:11.239Z,13.75
2023-10-25T02:51:40.174Z,13.73
2023-10-25T02:54:07.290Z,13.69
2023-10-25T02:56:34.032Z,13.65
2023-10-25T02:59:00.976Z,13.66
2023-10-25T03:01:27.963Z,13.57
2023-10-25T03:03:54.955Z,13.56
2023-10-25T03:06:21.864Z,13.61
2023-10-25T03:08:48.640Z,13.63
2023-10-25T03:11:15.457Z,13.58
2023-10-25T03:13:42.357Z,13.56
2023-10-25T03:16:10.140Z,13.55
2023-10-25T03:18:37.232Z,13.43
2023-10-25T03:21:05.226Z,13.50
2023-10-25T03:23:33.603Z,13.39
2023-10-25T03:26:05.455Z,13.30
2023-10-25T03:28:32.397Z,13.30
2023-10-25T03:31:04.629Z,13.38
2023-10-25T03:33:31.579Z,13.31
2023-10-25T03:35:58.349Z,13.27
2023-10-25T03:38:25.328Z,13.32
2023-10-25T03:41:05.537Z,13.25
2023-10-25T03:43:33.460Z,13.26
2023-10-25T03:46:08.087Z,13.17
2023-10-25T03:48:36.789Z,13.12
2023-10-25T03:51:08.017Z,13.11
2023-10-25T03:53:38.661Z,13.09
2023-10-25T03:56:05.810Z,13.16
2023-10-25T03:58:33.498Z,13.13
2023-10-25T04:01:12.118Z,13.07
2023-10-25T04:03:39.636Z,13.01
2023-10-25T04:06:08.616Z,12.95
2023-10-25T04:08:36.122Z,12.96
2023-10-25T04:11:03.019Z,12.92
2023-10-25T04:13:29.758Z,12.96
2023-10-25T04:16:01.521Z,12.99
2023-10-25T04:18:30.539Z,12.95
2023-10-25T04:20:59.451Z,13.00
2023-10-25T04:23:27.331Z,13.00
2023-10-25T04:26:03.501Z,13.02
2023-10-25T04:28:30.826Z,12.98
2023-10-25T04:30:57.637Z,12.99
2023-10-25T04:33:24.553Z,12.98
2023-10-25T04:35:52.112Z,12.94
2023-10-25T04:38:18.986Z,12.91
2023-10-25T04:40:45.794Z,12.85
2023-10-25T04:43:13.058Z,12.84
2023-10-25T04:45:40.032Z,12.88
2023-10-25T04:48:07.200Z,12.88
2023-10-25T04:50:36.461Z,12.91
2023-10-25T04:53:06.636Z,12.98
2023-10-25T04:55:35.698Z,13.02
2023-10-25T04:58:03.096Z,13.10
2023-10-25T05:00:30.464Z,13.12
2023-10-25T05:02:58.854Z,13.30
2023-10-25T05:05:26.030Z,13.36
2023-10-25T05:07:53.103Z,13.40
2023-10-25T05:10:20.851Z,13.46
2023-10-25T05:12:49.407Z,13.53
2023-10-25T05:15:18.759Z,13.59
2023-10-25T05:17:49.054Z,13.72
2023-10-25T05:20:16.470Z,13.86
2023-10-25T05:22:53.937Z,13.90
2023-10-25T05:25:21.803Z,13.87
2023-10-25T05:27:49.184Z,13.62
2023-10-25T05:30:17.495Z,13.33
2023-10-25T05:32:48.331Z,13.09
2023-10-25T05:35:15.982Z,12.93
2023-10-25T05:37:43.407Z,12.91
2023-10-25T05:40:10.949Z,12.69
2023-10-25T05:42:59.019Z,12.50
2023-10-25T05:45:25.871Z,12.36
2023-10-25T05:47:53.279Z,12.36
2023-10-25T05:50:20.658Z,12.44
2023-10-25T05:52:47.907Z,12.44
2023-10-25T05:55:16.423Z,12.61
2023-10-25T05:57:43.773Z,12.48
2023-10-25T06:00:11.104Z,12.49
2023-10-25T06:02:39.289Z,12.52
2023-10-25T06:05:13.337Z,12.36
2023-10-25T06:07:41.030Z,12.55
2023-10-25T06:10:08.802Z,12.60
2023-10-25T06:12:35.834Z,12.46
2023-10-25T06:15:05.672Z,12.47
2023-10-25T06:17:32.997Z,12.60
2023-10-25T06:19:59.886Z,12.71
2023-10-25T06:22:26.797Z,12.89
2023-10-25T06:24:53.578Z,13.02
2023-10-25T06:27:20.322Z,13.06
2023-10-25T06:29:47.200Z,13.18
2023-10-25T06:32:14.011Z,13.17
2023-10-25T06:34:40.993Z,13.18
2023-10-25T06:37:08.098Z,13.13
2023-10-25T06:39:35.232Z,13.26
2023-10-25T06:42:02.358Z,13.16
2023-10-25T06:44:31.008Z,13.33
2023-10-25T06:46:58.418Z,13.48
2023-10-25T06:49:25.542Z,13.46
2023-10-25T06:51:52.697Z,13.46
2023-10-25T06:54:19.869Z,13.36
2023-10-25T06:56:46.878Z,13.40
2023-10-25T06:59:14.020Z,13.35
2023-10-25T07:01:46.955Z,13.38
2023-10-25T07:04:17.924Z,13.27
2023-10-25T07:06:47.248Z,13.27
2023-10-25T07:09:15.463Z,13.06
2023-10-25T07:11:42.513Z,12.98
2023-10-25T07:14:09.625Z,13.09
2023-10-25T07:16:38.126Z,12.84
2023-10-25T07:19:05.014Z,12.82
2023-10-25T07:21:31.909Z,12.78
2023-10-25T07:23:58.717Z,12.72
2023-10-25T07:26:25.748Z,12.92
2023-10-25T07:28:52.549Z,13.84
2023-10-25T07:31:19.498Z,14.71
2023-10-25T07:33:46.462Z,15.36
2023-10-25T07:36:13.728Z,15.41
2023-10-25T07:38:40.450Z,15.19
2023-10-25T07:41:07.283Z,15.08
2023-10-25T07:43:34.164Z,14.90
2023-10-25T07:46:00.990Z,14.41
2023-10-25T07:48:28.649Z,14.15
2023-10-25T07:50:55.537Z,14.19
2023-10-25T07:53:23.555Z,14.10
2023-10-25T07:56:56.177Z,13.86
2023-10-25T07:58:40.079Z,13.66
2023-10-25T08:01:06.887Z,13.79
2023-10-25T08:03:33.974Z,13.98
2023-10-25T08:06:00.842Z,13.94
2023-10-25T08:08:27.838Z,13.95
2023-10-25T08:11:08.337Z,14.06
2023-10-25T08:13:36.382Z,14.17
2023-10-25T08:16:03.907Z,14.06
2023-10-25T08:18:32.494Z,14.14
2023-10-25T08:21:01.021Z,14.10
2023-10-25T08:23:28.796Z,14.16
2023-10-25T08:25:59.533Z,14.17
2023-10-25T08:28:26.874Z,14.34
2023-10-25T08:30:53.669Z,14.51
2023-10-25T08:33:20.631Z,14.44
2023-10-25T08:35:47.687Z,14.24
2023-10-25T08:38:14.788Z,14.24
2023-10-25T08:40:42.318Z,14.26
2023-10-25T08:43:09.474Z,14.45
2023-10-25T08:45:36.700Z,14.65
2023-10-25T08:48:05.144Z,14.55
2023-10-25T08:50:32.881Z,14.43
2023-10-25T08:53:01.825Z,14.37
2023-10-25T08:55:28.554Z,14.47
2023-10-25T08:57:57.329Z,14.44
2023-10-25T09:00:39.598Z,14.55
2023-10-25T09:03:33.496Z,14.65
2023-10-25T09:06:04.832Z,14.87
2023-10-25T09:08:32.888Z,14.92
2023-10-25T09:11:05.928Z,15.01
2023-10-25T09:13:36.818Z,14.99
2023-10-25T09:16:12.548Z,15.19
2023-10-25T09:18:40.760Z,15.44
2023-10-25T09:21:12.753Z,15.65
2023-10-25T09:23:40.671Z,15.67
2023-10-25T09:26:19.383Z,15.59
2023-10-25T09:28:49.687Z,15.72
2023-10-25T09:31:28.865Z,15.92
2023-10-25T09:33:58.707Z,15.52
2023-10-25T09:36:28.967Z,15.47
2023-10-25T09:38:56.618Z,15.34
2023-10-25T09:41:25.806Z,15.68
2023-10-25T09:43:57.934Z,15.64
2023-10-25T09:46:31.654Z,15.80
2023-10-25T09:49:05.785Z,15.69
2023-10-25T09:52:07.338Z,15.46
2023-10-25T09:54:38.932Z,16.10
2023-10-25T09:57:06.757Z,16.39
2023-10-25T09:59:34.617Z,16.72
2023-10-25T10:02:04.790Z,16.35
2023-10-25T10:04:31.527Z,16.49
2023-10-25T10:07:36.167Z,16.74
2023-10-25T10:10:24.496Z,16.95
2023-10-25T10:12:51.998Z,17.09
2023-10-25T10:15:20.894Z,16.67
2023-10-25T10:17:47.815Z,16.29
2023-10-25T10:20:31.359Z,16.86
2023-10-25T10:23:03.525Z,16.57
2023-10-25T10:25:45.775Z,17.04
2023-10-25T10:28:13.242Z,17.07
2023-10-25T10:30:41.128Z,16.66
2023-10-25T10:33:15.570Z,16.56
2023-10-25T10:35:49.240Z,16.36
2023-10-25T10:38:16.452Z,16.64
2023-10-25T10:40:43.406Z,16.71
2023-10-25T10:43:10.438Z,16.92
2023-10-25T10:45:41.631Z,17.37
2023-10-25T10:48:19.036Z,17.20
2023-10-25T10:50:46.043Z,17.08
2023-10-25T10:53:12.888Z,16.97
2023-10-25T10:55:41.395Z,16.95
2023-10-25T10:58:09.559Z,17.05
2023-10-25T11:00:36.716Z,17.33
2023-10-25T11:03:07.759Z,17.37
2023-10-25T11:05:38.608Z,17.70
2023-10-25T11:08:11.490Z,18.09
2023-10-25T11:10:39.157Z,18.74
2023-10-25T11:13:10.605Z,18.77
2023-10-25T11:15:38.258Z,18.63
2023-10-25T11:18:11.718Z,18.48
2023-10-25T11:20:42.686Z,19.02
2023-10-25T11:23:10.058Z,18.98
2023-10-25T11:25:39.003Z,18.91
2023-10-25T11:28:06.636Z,19.44
2023-10-25T11:30:36.562Z,19.66
2023-10-25T11:33:04.782Z,19.53
2023-10-25T11:35:33.858Z,19.96
2023-10-25T11:38:00.790Z,20.43
2023-10-25T11:40:44.011Z,20.29
2023-10-25T11:43:11.343Z,20.07
2023-10-25T11:45:39.429Z,19.56
2023-10-25T11:48:08.899Z,19.90
2023-10-25T11:50:37.310Z,19.97
2023-10-25T11:53:04.507Z,19.48
2023-10-25T11:55:31.726Z,20.05
2023-10-25T11:57:59.240Z,18.86
2023-10-25T12:00:27.496Z,18.68
2023-10-25T12:02:54.431Z,19.29
2023-10-25T12:05:21.386Z,19.46
2023-10-25T12:07:50.441Z,20.23
2023-10-25T12:10:17.851Z,20.51
2023-10-25T12:12:45.391Z,20.69
2023-10-25T12:15:12.578Z,21.08
2023-10-25T12:17:39.567Z,21.28
2023-10-25T12:20:22.777Z,21.69
2023-10-25T12:22:54.915Z,21.84
2023-10-25T12:25:21.883Z,22.28
2023-10-25T12:27:48.877Z,22.40
2023-10-25T12:30:16.163Z,22.32
2023-10-25T12:32:43.040Z,22.53
2023-10-25T12:35:10.100Z,21.94
2023-10-25T12:37:37.106Z,21.47
2023-10-25T12:40:06.230Z,21.29
2023-10-25T12:42:33.131Z,21.99
2023-10-25T12:45:00.275Z,22.40
2023-10-25T12:47:27.117Z,22.82
2023-10-25T12:49:54.079Z,23.27
2023-10-25T12:52:20.992Z,23.84
2023-10-25T12:54:48.167Z,23.50
2023-10-25T12:57:20.444Z,22.56
2023-10-25T12:59:47.351Z,22.27
2023-10-25T13:02:14.286Z,22.56
2023-10-25T13:04:41.249Z,22.54
2023-10-25T13:07:08.286Z,22.62
2023-10-25T13:09:35.234Z,23.16
2023-10-25T13:12:02.759Z,23.58
2023-10-25T13:14:29.634Z,22.51
2023-10-25T13:17:08.583Z,21.96
2023-10-25T13:19:43.814Z,22.07
2023-10-25T13:22:10.925Z,21.33
2023-10-25T13:24:41.397Z,21.68
2023-10-25T13:27:08.922Z,21.57
2023-10-25T13:29:35.910Z,21.55
2023-10-25T13:32:02.761Z,21.56
2023-10-25T13:34:29.499Z,21.61
2023-10-25T13:36:56.546Z,21.83
2023-10-25T13:39:23.618Z,21.45
2023-10-25T13:41:50.482Z,21.59
2023-10-25T13:44:17.580Z,21.31
2023-10-25T13:46:45.971Z,20.78
2023-10-25T13:49:14.584Z,20.34
2023-10-25T13:51:43.850Z,20.22
2023-10-25T13:54:11.758Z,20.44
2023-10-25T13:56:38.775Z,19.86
2023-10-25T13:59:06.450Z,20.15
2023-10-25T14:01:33.449Z,19.86
2023-10-25T14:04:03.148Z,19.51
2023-10-25T14:06:30.072Z,19.90
2023-10-25T14:08:56.894Z,20.14
2023-10-25T14:11:24.876Z,20.36
2023-10-25T14:13:52.365Z,20.71
2023-10-25T14:16:19.288Z,20.82
2023-10-25T14:18:47.099Z,21.03
2023-10-25T14:21:17.439Z,21.24
2023-10-25T14:23:46.493Z,21.13
2023-10-25T14:26:13.869Z,21.13
2023-10-25T14:28:40.785Z,21.00
2023-10-25T14:31:07.844Z,20.75
2023-10-25T14:33:34.998Z,20.76
2023-10-25T14:36:02.429Z,20.73
2023-10-25T14:38:29.838Z,20.65
2023-10-25T14:40:56.839Z,20.67
2023-10-25T14:43:23.812Z,20.15
2023-10-25T14:45:50.886Z,19.78
2023-10-25T14:48:17.957Z,19.69
2023-10-25T14:50:44.984Z,19.96
2023-10-25T14:53:11.885Z,20.19
2023-10-25T14:55:38.835Z,20.58
2023-10-25T14:58:06.651Z,20.96
2023-10-25T15:00:34.821Z,21.28
2023-10-25T15:03:03.020Z,21.32
2023-10-25T15:05:37.652Z,21.36
2023-10-25T15:08:05.443Z,20.87
2023-10-25T15:13:11.581Z,20.29
2023-10-25T15:15:40.798Z,20.03
2023-10-25T15:18:07.911Z,20.22
2023-10-25T15:20:40.559Z,20.26
2023-10-25T15:23:07.343Z,20.55
2023-10-25T15:25:39.019Z,20.74
2023-10-25T15:28:14.631Z,21.02
2023-10-25T15:30:45.565Z,21.10
2023-10-25T15:33:14.836Z,21.25
2023-10-25T15:35:41.826Z,21.23
2023-10-25T15:38:08.578Z,21.23
2023-10-25T15:40:42.854Z,21.26
2023-10-25T15:43:09.834Z,21.32
2023-10-25T15:45:37.907Z,21.23
2023-10-25T15:48:04.825Z,21.10
2023-10-25T15:50:32.421Z,21.00
2023-10-25T15:56:00.960Z,20.67
2023-10-25T15:58:27.751Z,20.68
2023-10-25T16:00:54.598Z,20.79
2023-10-25T16:03:21.621Z,20.40
2023-10-25T16:05:48.647Z,20.46
2023-10-25T16:08:23.153Z,20.45
2023-10-25T16:10:50.579Z,20.43
2023-10-25T16:13:17.388Z,20.40
2023-10-25T16:15:44.329Z,20.29
2023-10-25T16:18:11.248Z,20.34
2023-10-25T16:20:44.919Z,20.28
2023-10-25T16:23:12.821Z,20.25
2023-10-25T16:25:39.860Z,20.26
2023-10-25T16:28:09.681Z,20.19
2023-10-25T16:30:40.499Z,20.11
2023-10-25T16:33:07.899Z,20.13
2023-10-25T16:35:43.760Z,20.09
2023-10-25T16:38:16.616Z,20.11
2023-10-25T16:40:43.393Z,20.10
2023-10-25T16:43:10.614Z,20.08
2023-10-25T16:45:37.414Z,20.04
2023-10-25T16:48:07.925Z,20.01
2023-10-25T16:50:39.314Z,19.91
2023-10-25T16:53:06.366Z,19.86
2023-10-25T16:55:33.199Z,19.80
2023-10-25T16:58:01.008Z,19.64
2023-10-25T17:00:30.001Z,19.57
2023-10-25T17:02:56.925Z,19.49
2023-10-25T17:05:23.996Z,19.44
2023-10-25T17:07:51.308Z,19.48
2023-10-25T17:10:20.321Z,19.37
2023-10-25T17:12:50.262Z,19.37
2023-10-25T17:15:17.234Z,19.31
2023-10-25T17:17:46.965Z,19.28
2023-10-25T17:20:13.871Z,19.26
2023-10-25T17:22:40.895Z,19.20
2023-10-25T17:25:08.187Z,19.25
2023-10-25T17:27:37.895Z,19.18
2023-10-25T17:30:06.564Z,19.07
2023-10-25T17:32:33.591Z,18.90
2023-10-25T17:35:00.727Z,18.77
2023-10-25T17:37:27.586Z,18.88
2023-10-25T17:39:54.498Z,18.88
2023-10-25T17:42:21.319Z,18.83
2023-10-25T17:44:48.359Z,18.79
2023-10-25T17:47:15.710Z,18.71
2023-10-25T17:49:42.822Z,18.64
2023-10-25T17:52:10.249Z,18.72
2023-10-25T17:54:37.002Z,18.70
2023-10-25T17:57:04.374Z,18.78
2023-10-25T17:59:43.939Z,18.79
2023-10-25T18:02:10.749Z,18.83
2023-10-25T18:04:37.676Z,18.73
2023-10-25T18:07:08.513Z,18.61
2023-10-25T18:09:45.175Z,18.57
2023-10-25T18:12:22.031Z,18.58
2023-10-25T18:14:54.524Z,18.67
2023-10-25T18:17:21.756Z,18.52
2023-10-25T18:19:52.669Z,18.55
2023-10-25T18:25:03.589Z,18.40
2023-10-25T18:27:31.570Z,18.38
2023-10-25T18:30:23.283Z,18.40
2023-10-25T18:32:56.424Z,18.42
2023-10-25T18:35:26.235Z,18.49
2023-10-25T18:37:56.260Z,18.37
2023-10-25T18:40:24.326Z,18.26
2023-10-25T18:42:51.549Z,18.40
2023-10-25T18:45:24.044Z,18.42
2023-10-25T18:47:51.214Z,18.13
2023-10-25T18:50:20.754Z,17.64
2023-10-25T18:52:47.833Z,17.65
2023-10-25T18:55:14.913Z,17.59
2023-10-25T18:57:43.220Z,17.71
2023-10-25T19:00:10.470Z,17.64
2023-10-25T19:02:37.893Z,17.67
2023-10-25T19:06:25.626Z,17.78
2023-10-25T19:08:25.302Z,17.81
2023-10-25T19:10:44.035Z,17.87
2023-10-25T19:13:12.460Z,17.81
2023-10-25T19:15:42.649Z,17.79
2023-10-25T19:18:10.336Z,17.82
2023-10-25T19:20:38.136Z,17.84
2023-10-25T19:23:05.220Z,17.92
2023-10-25T19:25:34.210Z,17.86
2023-10-25T19:28:01.280Z,17.84
2023-10-25T19:30:28.352Z,17.90
2023-10-25T19:32:56.969Z,17.71
2023-10-25T19:35:24.005Z,17.36
2023-10-25T19:37:50.873Z,16.65
2023-10-25T19:40:19.440Z,15.93
2023-10-25T19:42:48.643Z,16.07
2023-10-25T19:45:15.502Z,15.77
2023-10-25T19:47:43.057Z,15.64
2023-10-25T19:50:12.700Z,15.63
2023-10-25T19:52:42.159Z,15.43
2023-10-25T19:55:12.271Z,15.59
2023-10-25T19:57:39.222Z,15.73
2023-10-25T20:00:07.305Z,15.93
2023-10-25T20:02:34.113Z,15.87
2023-10-25T20:05:02.633Z,16.09
2023-10-25T20:07:29.552Z,15.82
2023-10-25T20:09:56.472Z,15.82
2023-10-25T20:12:25.128Z,15.72
2023-10-25T20:14:51.990Z,15.29
2023-10-25T20:17:19.157Z,15.04
2023-10-25T20:19:46.120Z,15.00
2023-10-25T20:22:12.856Z,14.87
2023-10-25T20:24:40.008Z,14.87
2023-10-25T20:27:06.771Z,14.85
2023-10-25T20:29:33.582Z,14.83
2023-10-25T20:32:03.527Z,14.69
2023-10-25T20:34:30.524Z,14.65
2023-10-25T20:36:57.361Z,14.79
2023-10-25T20:39:24.438Z,14.89
2023-10-25T20:41:51.335Z,14.80
2023-10-25T20:44:19.552Z,14.79
2023-10-25T20:46:46.971Z,14.89
2023-10-25T20:49:14.495Z,14.86
2023-10-25T20:51:41.370Z,14.81
2023-10-25T20:54:08.560Z,14.41
2023-10-25T20:56:35.460Z,14.21
2023-10-25T20:59:06.040Z,14.19
2023-10-25T21:01:33.163Z,14.11
2023-10-25T21:04:00.161Z,14.10
2023-10-25T21:06:27.746Z,14.12
2023-10-25T21:08:56.203Z,14.11
2023-10-25T21:11:23.282Z,14.18
2023-10-25T21:13:50.032Z,14.26
2023-10-25T21:16:16.985Z,14.26
2023-10-25T21:18:44.132Z,14.25
2023-10-25T21:21:13.584Z,14.31
2023-10-25T21:23:43.434Z,14.39
2023-10-25T21:26:13.300Z,14.44
2023-10-25T21:28:40.604Z,14.43
2023-10-25T21:31:13.077Z,14.51
2023-10-25T21:33:40.438Z,14.45
2023-10-25T21:36:11.826Z,14.41
2023-10-25T21:38:43.210Z,14.39
2023-10-25T21:41:13.893Z,14.54
2023-10-25T21:43:43.877Z,14.57
2023-10-25T21:46:11.140Z,14.65
2023-10-25T21:49:01.695Z,14.85
2023-10-25T21:51:31.502Z,14.92
2023-10-25T21:54:10.707Z,15.18
2023-10-25T21:56:37.681Z,15.24
2023-10-25T21:59:52.057Z,15.13
2023-10-25T22:02:04.748Z,14.87
2023-10-25T22:04:31.626Z,15.00
2023-10-25T22:06:59.490Z,14.91
2023-10-25T22:09:26.612Z,14.65
2023-10-25T22:11:53.784Z,14.38
2023-10-25T22:14:20.887Z,14.20
2023-10-25T22:16:47.810Z,14.09
2023-10-25T22:19:14.797Z,13.95
2023-10-25T22:21:42.553Z,13.90
2023-10-25T22:24:09.692Z,13.91
2023-10-25T22:26:38.482Z,13.94
2023-10-25T22:31:37.644Z,13.98
2023-10-25T22:34:04.754Z,14.06
2023-10-25T22:36:43.722Z,14.14
2023-10-25T22:39:10.970Z,14.18
2023-10-25T22:41:39.946Z,14.15
2023-10-25T22:44:07.228Z,14.09
2023-10-25T22:46:34.255Z,14.03
2023-10-25T22:49:01.103Z,14.01
2023-10-25T22:51:28.669Z,13.82
2023-10-25T22:53:57.071Z,13.87
2023-10-25T22:56:24.124Z,13.81
2023-10-25T22:58:52.333Z,13.71
2023-10-25T23:01:19.126Z,13.68
2023-10-25T23:03:45.986Z,13.71
2023-10-25T23:06:13.346Z,13.90
2023-10-25T23:08:42.107Z,13.93
2023-10-25T23:11:09.175Z,13.94
2023-10-25T23:13:36.363Z,13.98
2023-10-25T23:16:03.164Z,14.12
2023-10-25T23:18:31.325Z,14.15
2023-10-25T23:21:00.794Z,14.19
2023-10-25T23:23:27.561Z,14.08
2023-10-25T23:25:54.738Z,13.99
2023-10-25T23:28:25.682Z,13.89
2023-10-25T23:30:52.535Z,13.77
2023-10-25T23:33:19.391Z,13.69
2023-10-25T23:35:46.406Z,13.58
2023-10-25T23:38:13.477Z,13.55
2023-10-25T23:40:42.606Z,13.82
2023-10-25T23:43:09.360Z,13.77
2023-10-25T23:45:36.188Z,13.76
2023-10-25T23:48:04.241Z,13.63
2023-10-25T23:50:32.454Z,13.50
2023-10-25T23:52:59.462Z,13.37
2023-10-25T23:55:26.397Z,13.38
2023-10-25T23:57:55.165Z,13.49
